CMA CGM Columba — 2DBC9 — position and weather

sailwx.info

Track history (hours):
 
Tides and Currents Weather Stations Pressure Air Temp Water Temp Dewpoint Dewpoint Depression Visibility Wind Speed Wind Dir Waves Ship Positions

CMA CGM Columba

Last reported at 2017-Jul-05 08:28 UTC. Time now 2017-Jul-22 04:40 UTC.
Position N 01°16' E 103°47'.
Warning: this ship's position is 16 days out of date.

Length 363 m; draft 14.2 m.

Type: Ship (hazmat cat A). MMSI: 235077448.

Date/timePositionNaut miles runAvg speedWind from/ knotsBaromVisibWave heightAir tempDewpointWater temp
2017-Jul-05 08:28N 01°16' E 103°47'0 0.0
2017-Jul-05 07:58N 01°16' E 103°47'0 0.0
2017-Jul-05 07:28N 01°16' E 103°47'0 0.0
2017-Jul-05 07:00N 01°16' E 103°47'0 0.6
2017-Jul-05 06:30N 01°16' E 103°47'2 3.6
2017-Jul-05 06:00N 01°14' E 103°47'510.1
2017-Jul-05 05:30N 01°13' E 103°52'3 5.9
2017-Jul-05 05:00N 01°14' E 103°55'510.0
2017-Jul-05 04:28N 01°15' E 104°00'611.7
2017-Jul-05 03:57N 01°17' E 104°06'  
2017-Jun-29 12:40N 30°55' E 123°06'422.2
2017-Jun-29 12:30N 30°57' E 123°02'2020.1
2017-Jun-29 11:30N 31°05' E 122°41'917.7
2017-Jun-29 11:00N 31°06' E 122°30'611.7
2017-Jun-29 10:30N 31°06' E 122°24'612.3
2017-Jun-29 10:00N 31°07' E 122°16'612.8
2017-Jun-29 09:30N 31°11' E 122°11'611.7
2017-Jun-29 09:00N 31°14' E 122°05'510.7
2017-Jun-29 08:30N 31°15' E 121°58'611.7
2017-Jun-29 08:00N 31°16' E 121°52'611.2
2017-Jun-29 07:30N 31°18' E 121°46'5 9.5
2017-Jun-29 07:00N 31°20' E 121°41'1 1.1
2017-Jun-29 06:29N 31°20' E 121°40'0 0.0
2017-Jun-29 05:59N 31°20' E 121°40'0 0.0
2017-Jun-29 05:29N 31°20' E 121°40'0 0.0
2017-Jun-29 04:59N 31°20' E 121°40'0 0.0
2017-Jun-29 04:29N 31°20' E 121°40'0 0.0
2017-Jun-29 03:59N 31°20' E 121°40'0 0.0
2017-Jun-29 03:29N 31°20' E 121°40'0 0.0
2017-Jun-29 02:59N 31°20' E 121°40'0 0.0
2017-Jun-29 02:26N 31°20' E 121°40'0 0.0
2017-Jun-29 01:59N 31°20' E 121°40'0 0.0
2017-Jun-29 01:29N 31°20' E 121°40'0 0.0
2017-Jun-29 00:59N 31°20' E 121°40'0 0.0
2017-Jun-29 00:26N 31°20' E 121°40'0 0.0
2017-Jun-28 23:56N 31°20' E 121°40'0 0.0
2017-Jun-28 23:29N 31°20' E 121°40'0 0.0
2017-Jun-28 22:59N 31°20' E 121°40'0 0.0
2017-Jun-28 22:29N 31°20' E 121°40'0 0.0
2017-Jun-28 21:56N 31°20' E 121°40'0 0.0
2017-Jun-28 21:29N 31°20' E 121°40'0 0.0
2017-Jun-28 20:59N 31°20' E 121°40'0 0.0
2017-Jun-28 20:29N 31°20' E 121°40'0 0.0
2017-Jun-28 19:59N 31°20' E 121°40'1 1.1
2017-Jun-28 19:30N 31°20' E 121°40'1 2.4
2017-Jun-28 19:01N 31°20' E 121°41'4 8.8
2017-Jun-28 18:30N 31°18' E 121°46'510.7
2017-Jun-28 18:00N 31°16' E 121°52'611.8
2017-Jun-28 17:30N 31°15' E 121°58'611.1
2017-Jun-28 17:00N 31°14' E 122°05'511.0
2017-Jun-28 16:30N 31°11' E 122°10'611.2
2017-Jun-28 16:00N 31°08' E 122°16'611.2
2017-Jun-28 15:30N 31°06' E 122°22'510.1
2017-Jun-28 15:00N 31°07' E 122°27'8 7.8
2017-Jun-28 14:01N 31°10' E 122°36'0 0.0
2017-Jun-28 03:04N 31°10' E 122°36'0 0.0
2017-Jun-28 02:52N 31°10' E 122°36'0 0.1
2017-Jun-28 02:19N 31°10' E 122°36'0 0.1
2017-Jun-28 01:52N 31°10' E 122°36'0 0.2
2017-Jun-28 01:22N 31°10' E 122°36'0 0.1
2017-Jun-28 00:55N 31°10' E 122°36'0 0.1
2017-Jun-28 00:28N 31°10' E 122°36'0 0.1
2017-Jun-27 23:58N 31°10' E 122°36'0 0.0
2017-Jun-27 23:28N 31°10' E 122°36'0 0.1
2017-Jun-27 22:58N 31°10' E 122°36'0 0.0
2017-Jun-27 22:28N 31°10' E 122°36'0 0.1
2017-Jun-27 21:58N 31°10' E 122°36'0 0.1
2017-Jun-27 21:28N 31°10' E 122°36'0 0.0
2017-Jun-27 20:58N 31°10' E 122°36'0 0.1
2017-Jun-27 20:28N 31°10' E 122°36'0 0.1
2017-Jun-27 19:58N 31°10' E 122°36'0 0.0
2017-Jun-27 19:28N 31°10' E 122°36'0 0.1
2017-Jun-27 18:46N 31°10' E 122°36'0 0.1
2017-Jun-27 18:25N 31°10' E 122°36'0 0.1
2017-Jun-27 15:40N 31°10' E 122°36'0 0.2
2017-Jun-27 15:10N 31°10' E 122°36'0 0.1
2017-Jun-27 14:37N 31°10' E 122°36'0 0.1
2017-Jun-27 12:58N 31°10' E 122°36'0 0.0
2017-Jun-27 11:52N 31°10' E 122°36'0 0.0
2017-Jun-27 10:40N 31°10' E 122°36'0 0.0
2017-Jun-27 10:28N 31°10' E 122°36'0 0.1
2017-Jun-27 09:58N 31°10' E 122°36'0 0.0
2017-Jun-27 09:28N 31°10' E 122°36'0 0.0
2017-Jun-27 08:34N 31°10' E 122°36'0 0.0
2017-Jun-26 23:25N 31°10' E 122°36'0 0.0
2017-Jun-26 22:43N 31°10' E 122°36'0 0.1
2017-Jun-26 21:34N 31°10' E 122°36'0 0.1
2017-Jun-26 19:52N 31°10' E 122°36'0 0.1
2017-Jun-26 14:37N 31°10' E 122°36'0 0.1
2017-Jun-26 14:28N 31°10' E 122°36'0 0.1
2017-Jun-26 12:52N 31°10' E 122°36'0 0.1
2017-Jun-26 10:58N 31°10' E 122°36'0 0.1
2017-Jun-26 10:13N 31°10' E 122°36'0 1.0
2017-Jun-26 09:46N 31°10' E 122°36'0 0.1
2017-Jun-26 09:25N 31°10' E 122°36'0 0.1
2017-Jun-26 08:58N 31°10' E 122°36'0 0.8
2017-Jun-26 08:28N 31°10' E 122°36'0 0.3
2017-Jun-26 07:31N 31°10' E 122°36'0 0.5
2017-Jun-26 07:25N 31°10' E 122°36'0 0.2
2017-Jun-26 06:25N 31°10' E 122°36'1 0.2
2017-Jun-26 03:51N 31°10' E 122°35'2 5.4
2017-Jun-26 03:29N 31°08' E 122°35'2512.9
2017-Jun-26 01:34N 31°14' E 123°03'1012.8
2017-Jun-26 00:46N 31°17' E 123°14'  
Track history (hours):
 
Tides and Currents Weather Stations Pressure Air Temp Water Temp Dewpoint Dewpoint Depression Visibility Wind Speed Wind Dir Waves Ship Positions

CMA CGM Columba

Last reported at 2017-Jul-05 08:28 UTC. Time now 2017-Jul-22 04:40 UTC.
Position N 01°16' E 103°47'.
Warning: this ship's position is 16 days out of date.

Length 363 m; draft 14.2 m.

Type: Ship (hazmat cat A). MMSI: 235077448.

Date/timePositionNaut miles runAvg speedWind from/ knotsBaromVisibWave heightAir tempDewpointWater temp
2017-Jul-05 08:28N 01°16' E 103°47'0 0.0
2017-Jul-05 07:58N 01°16' E 103°47'0 0.0
2017-Jul-05 07:28N 01°16' E 103°47'0 0.0
2017-Jul-05 07:00N 01°16' E 103°47'0 0.6
2017-Jul-05 06:30N 01°16' E 103°47'2 3.6
2017-Jul-05 06:00N 01°14' E 103°47'510.1
2017-Jul-05 05:30N 01°13' E 103°52'3 5.9
2017-Jul-05 05:00N 01°14' E 103°55'510.0
2017-Jul-05 04:28N 01°15' E 104°00'611.7
2017-Jul-05 03:57N 01°17' E 104°06'  
2017-Jun-29 12:40N 30°55' E 123°06'422.2
2017-Jun-29 12:30N 30°57' E 123°02'2020.1
2017-Jun-29 11:30N 31°05' E 122°41'917.7
2017-Jun-29 11:00N 31°06' E 122°30'611.7
2017-Jun-29 10:30N 31°06' E 122°24'612.3
2017-Jun-29 10:00N 31°07' E 122°16'612.8
2017-Jun-29 09:30N 31°11' E 122°11'611.7
2017-Jun-29 09:00N 31°14' E 122°05'510.7
2017-Jun-29 08:30N 31°15' E 121°58'611.7
2017-Jun-29 08:00N 31°16' E 121°52'611.2
2017-Jun-29 07:30N 31°18' E 121°46'5 9.5
2017-Jun-29 07:00N 31°20' E 121°41'1 1.1
2017-Jun-29 06:29N 31°20' E 121°40'0 0.0
2017-Jun-29 05:59N 31°20' E 121°40'0 0.0
2017-Jun-29 05:29N 31°20' E 121°40'0 0.0
2017-Jun-29 04:59N 31°20' E 121°40'0 0.0
2017-Jun-29 04:29N 31°20' E 121°40'0 0.0
2017-Jun-29 03:59N 31°20' E 121°40'0 0.0
2017-Jun-29 03:29N 31°20' E 121°40'0 0.0
2017-Jun-29 02:59N 31°20' E 121°40'0 0.0
2017-Jun-29 02:26N 31°20' E 121°40'0 0.0
2017-Jun-29 01:59N 31°20' E 121°40'0 0.0
2017-Jun-29 01:29N 31°20' E 121°40'0 0.0
2017-Jun-29 00:59N 31°20' E 121°40'0 0.0
2017-Jun-29 00:26N 31°20' E 121°40'0 0.0
2017-Jun-28 23:56N 31°20' E 121°40'0 0.0
2017-Jun-28 23:29N 31°20' E 121°40'0 0.0
2017-Jun-28 22:59N 31°20' E 121°40'0 0.0
2017-Jun-28 22:29N 31°20' E 121°40'0 0.0
2017-Jun-28 21:56N 31°20' E 121°40'0 0.0
2017-Jun-28 21:29N 31°20' E 121°40'0 0.0
2017-Jun-28 20:59N 31°20' E 121°40'0 0.0
2017-Jun-28 20:29N 31°20' E 121°40'0 0.0
2017-Jun-28 19:59N 31°20' E 121°40'1 1.1
2017-Jun-28 19:30N 31°20' E 121°40'1 2.4
2017-Jun-28 19:01N 31°20' E 121°41'4 8.8
2017-Jun-28 18:30N 31°18' E 121°46'510.7
2017-Jun-28 18:00N 31°16' E 121°52'611.8
2017-Jun-28 17:30N 31°15' E 121°58'611.1
2017-Jun-28 17:00N 31°14' E 122°05'511.0
2017-Jun-28 16:30N 31°11' E 122°10'611.2
2017-Jun-28 16:00N 31°08' E 122°16'611.2
2017-Jun-28 15:30N 31°06' E 122°22'510.1
2017-Jun-28 15:00N 31°07' E 122°27'8 7.8
2017-Jun-28 14:01N 31°10' E 122°36'0 0.0
2017-Jun-28 03:04N 31°10' E 122°36'0 0.0
2017-Jun-28 02:52N 31°10' E 122°36'0 0.1
2017-Jun-28 02:19N 31°10' E 122°36'0 0.1
2017-Jun-28 01:52N 31°10' E 122°36'0 0.2
2017-Jun-28 01:22N 31°10' E 122°36'0 0.1
2017-Jun-28 00:55N 31°10' E 122°36'0 0.1
2017-Jun-28 00:28N 31°10' E 122°36'0 0.1
2017-Jun-27 23:58N 31°10' E 122°36'0 0.0
2017-Jun-27 23:28N 31°10' E 122°36'0 0.1
2017-Jun-27 22:58N 31°10' E 122°36'0 0.0
2017-Jun-27 22:28N 31°10' E 122°36'0 0.1
2017-Jun-27 21:58N 31°10' E 122°36'0 0.1
2017-Jun-27 21:28N 31°10' E 122°36'0 0.0
2017-Jun-27 20:58N 31°10' E 122°36'0 0.1
2017-Jun-27 20:28N 31°10' E 122°36'0 0.1
2017-Jun-27 19:58N 31°10' E 122°36'0 0.0
2017-Jun-27 19:28N 31°10' E 122°36'0 0.1
2017-Jun-27 18:46N 31°10' E 122°36'0 0.1
2017-Jun-27 18:25N 31°10' E 122°36'0 0.1
2017-Jun-27 15:40N 31°10' E 122°36'0 0.2
2017-Jun-27 15:10N 31°10' E 122°36'0 0.1
2017-Jun-27 14:37N 31°10' E 122°36'0 0.1
2017-Jun-27 12:58N 31°10' E 122°36'0 0.0
2017-Jun-27 11:52N 31°10' E 122°36'0 0.0
2017-Jun-27 10:40N 31°10' E 122°36'0 0.0
2017-Jun-27 10:28N 31°10' E 122°36'0 0.1
2017-Jun-27 09:58N 31°10' E 122°36'0 0.0
2017-Jun-27 09:28N 31°10' E 122°36'0 0.0
2017-Jun-27 08:34N 31°10' E 122°36'0 0.0
2017-Jun-26 23:25N 31°10' E 122°36'0 0.0
2017-Jun-26 22:43N 31°10' E 122°36'0 0.1
2017-Jun-26 21:34N 31°10' E 122°36'0 0.1
2017-Jun-26 19:52N 31°10' E 122°36'0 0.1
2017-Jun-26 14:37N 31°10' E 122°36'0 0.1
2017-Jun-26 14:28N 31°10' E 122°36'0 0.1
2017-Jun-26 12:52N 31°10' E 122°36'0 0.1
2017-Jun-26 10:58N 31°10' E 122°36'0 0.1
2017-Jun-26 10:13N 31°10' E 122°36'0 1.0
2017-Jun-26 09:46N 31°10' E 122°36'0 0.1
2017-Jun-26 09:25N 31°10' E 122°36'0 0.1
2017-Jun-26 08:58N 31°10' E 122°36'0 0.8
2017-Jun-26 08:28N 31°10' E 122°36'0 0.3
2017-Jun-26 07:31N 31°10' E 122°36'0 0.5
2017-Jun-26 07:25N 31°10' E 122°36'0 0.2
2017-Jun-26 06:25N 31°10' E 122°36'1 0.2
2017-Jun-26 03:51N 31°10' E 122°35'2 5.4
2017-Jun-26 03:29N 31°08' E 122°35'2512.9
2017-Jun-26 01:34N 31°14' E 123°03'1012.8
2017-Jun-26 00:46N 31°17' E 123°14'  

Dump ship's entire track history